sensor_id;sensor_type;location;lat;lon;timestamp;pressure;altitude;pressure_sealevel;temperature;humidity
6938;BME280;40040;42.706;23.372;2022-10-15T00:01:19;147231.63;;;12.41;100.00
6938;BME280;40040;42.706;23.372;2022-10-15T00:03:46;147229.13;;;12.40;100.00
6938;BME280;40040;42.706;23.372;2022-10-15T00:06:15;147235.31;;;12.42;100.00
6938;BME280;40040;42.706;23.372;2022-10-15T00:08:42;147226.66;;;12.39;100.00
6938;BME280;40040;42.706;23.372;2022-10-15T00:11:12;147214.31;;;12.34;100.00
6938;BME280;40040;42.706;23.372;2022-10-15T00:13:42;147208.13;;;12.31;100.00
6938;BME280;40040;42.706;23.372;2022-10-15T00:16:11;147199.47;;;12.28;100.00
6938;BME280;40040;42.706;23.372;2022-10-15T00:18:39;147159.94;;;12.12;100.00
6938;BME280;40040;42.706;23.372;2022-10-15T00:21:08;147172.28;;;12.17;100.00
6938;BME280;40040;42.706;23.372;2022-10-15T00:23:36;147169.81;;;12.16;100.00
6938;BME280;40040;42.706;23.372;2022-10-15T00:26:05;147146.38;;;12.06;100.00
6938;BME280;40040;42.706;23.372;2022-10-15T00:28:33;147145.13;;;12.06;100.00
6938;BME280;40040;42.706;23.372;2022-10-15T00:31:05;147137.72;;;12.03;100.00
6938;BME280;40040;42.706;23.372;2022-10-15T00:33:32;147120.44;;;11.96;100.00
6938;BME280;40040;42.706;23.372;2022-10-15T00:36:01;147066.06;;;11.74;100.00
6938;BME280;40040;42.706;23.372;2022-10-15T00:38:29;147127.84;;;11.99;100.00
6938;BME280;40040;42.706;23.372;2022-10-15T00:40:56;147126.59;;;11.98;100.00
6938;BME280;40040;42.706;23.372;2022-10-15T00:43:40;147003.06;;;11.48;100.00
6938;BME280;40040;42.706;23.372;2022-10-15T00:46:19;147153.78;;;12.09;100.00
6938;BME280;40040;42.706;23.372;2022-10-15T00:48:51;147152.53;;;12.09;100.00
6938;BME280;40040;42.706;23.372;2022-10-15T00:51:19;147156.22;;;12.10;100.00
6938;BME280;40040;42.706;23.372;2022-10-15T00:53:48;147155.03;;;12.10;100.00
6938;BME280;40040;42.706;23.372;2022-10-15T00:56:17;147172.28;;;12.17;100.00
6938;BME280;40040;42.706;23.372;2022-10-15T00:58:47;147174.78;;;12.18;100.00
6938;BME280;40040;42.706;23.372;2022-10-15T01:01:15;147178.47;;;12.19;100.00
6938;BME280;40040;42.706;23.372;2022-10-15T01:03:42;147179.72;;;12.20;100.00
6938;BME280;40040;42.706;23.372;2022-10-15T01:06:09;147180.94;;;12.20;100.00
6938;BME280;40040;42.706;23.372;2022-10-15T01:08:36;147184.66;;;12.22;100.00
6938;BME280;40040;42.706;23.372;2022-10-15T01:11:13;147174.78;;;12.18;100.00
6938;BME280;40040;42.706;23.372;2022-10-15T01:13:47;147168.56;;;12.15;100.00
6938;BME280;40040;42.706;23.372;2022-10-15T01:16:22;147180.94;;;12.20;100.00
6938;BME280;40040;42.706;23.372;2022-10-15T01:18:54;147193.31;;;12.25;100.00
6938;BME280;40040;42.706;23.372;2022-10-15T01:21:28;147174.78;;;12.18;100.00
6938;BME280;40040;42.706;23.372;2022-10-15T01:27:24;147180.94;;;12.20;100.00
6938;BME280;40040;42.706;23.372;2022-10-15T01:30:04;147174.78;;;12.18;100.00
6938;BME280;40040;42.706;23.372;2022-10-15T01:32:36;147184.66;;;12.22;100.00
6938;BME280;40040;42.706;23.372;2022-10-15T01:35:10;147184.66;;;12.22;100.00
6938;BME280;40040;42.706;23.372;2022-10-15T01:37:47;147174.78;;;12.18;100.00
6938;BME280;40040;42.706;23.372;2022-10-15T01:40:20;147182.16;;;12.21;100.00
6938;BME280;40040;42.706;23.372;2022-10-15T01:42:53;147174.78;;;12.18;100.00
6938;BME280;40040;42.706;23.372;2022-10-15T01:45:24;147177.22;;;12.19;100.00
6938;BME280;40040;42.706;23.372;2022-10-15T01:47:55;147174.78;;;12.18;100.00
6938;BME280;40040;42.706;23.372;2022-10-15T01:50:25;147177.22;;;12.19;100.00
6938;BME280;40040;42.706;23.372;2022-10-15T01:52:56;147172.28;;;12.17;100.00
6938;BME280;40040;42.706;23.372;2022-10-15T01:55:25;147169.81;;;12.16;100.00
6938;BME280;40040;42.706;23.372;2022-10-15T01:57:54;147161.19;;;12.12;100.00
6938;BME280;40040;42.706;23.372;2022-10-15T02:00:23;147177.22;;;12.19;100.00
6938;BME280;40040;42.706;23.372;2022-10-15T02:02:49;147157.47;;;12.11;100.00
6938;BME280;40040;42.706;23.372;2022-10-15T02:05:22;147142.63;;;12.05;100.00
6938;BME280;40040;42.706;23.372;2022-10-15T02:07:54;147157.47;;;12.11;100.00
6938;BME280;40040;42.706;23.372;2022-10-15T02:10:27;147132.78;;;12.01;100.00
6938;BME280;40040;42.706;23.372;2022-10-15T02:13:03;147164.88;;;12.14;100.00
6938;BME280;40040;42.706;23.372;2022-10-15T02:15:40;147174.78;;;12.18;100.00
6938;BME280;40040;42.706;23.372;2022-10-15T02:18:15;147169.81;;;12.16;100.00
6938;BME280;40040;42.706;23.372;2022-10-15T02:20:50;147072.25;;;11.76;100.00
6938;BME280;40040;42.706;23.372;2022-10-15T02:23:23;147174.78;;;12.18;100.00
6938;BME280;40040;42.706;23.372;2022-10-15T02:25:53;147174.78;;;12.18;100.00
6938;BME280;40040;42.706;23.372;2022-10-15T02:28:23;147177.22;;;12.19;100.00
6938;BME280;40040;42.706;23.372;2022-10-15T02:30:51;147180.94;;;12.20;100.00
6938;BME280;40040;42.706;23.372;2022-10-15T02:33:22;147184.66;;;12.22;100.00
6938;BME280;40040;42.706;23.372;2022-10-15T02:35:51;147172.28;;;12.17;100.00
6938;BME280;40040;42.706;23.372;2022-10-15T02:38:21;147172.28;;;12.17;100.00
6938;BME280;40040;42.706;23.372;2022-10-15T02:40:50;147194.53;;;12.26;100.00
6938;BME280;40040;42.706;23.372;2022-10-15T02:43:19;147211.81;;;12.33;100.00
6938;BME280;40040;42.706;23.372;2022-10-15T02:45:46;147203.16;;;12.29;100.00
6938;BME280;40040;42.706;23.372;2022-10-15T02:48:13;147221.72;;;12.37;100.00
6938;BME280;40040;42.706;23.372;2022-10-15T02:50:40;147214.31;;;12.34;100.00
6938;BME280;40040;42.706;23.372;2022-10-15T02:53:08;147209.38;;;12.32;100.00
6938;BME280;40040;42.706;23.372;2022-10-15T02:55:35;147206.88;;;12.31;100.00
6938;BME280;40040;42.706;23.372;2022-10-15T02:58:02;147195.78;;;12.26;100.00
6938;BME280;40040;42.706;23.372;2022-10-15T03:00:29;147204.41;;;12.30;100.00
6938;BME280;40040;42.706;23.372;2022-10-15T03:02:56;147224.16;;;12.38;100.00
6938;BME280;40040;42.706;23.372;2022-10-15T03:05:23;147210.63;;;12.32;100.00
6938;BME280;40040;42.706;23.372;2022-10-15T03:07:49;147219.25;;;12.36;100.00
6938;BME280;40040;42.706;23.372;2022-10-15T03:10:18;147208.13;;;12.31;100.00
6938;BME280;40040;42.706;23.372;2022-10-15T03:12:44;147199.47;;;12.28;100.00
6938;BME280;40040;42.706;23.372;2022-10-15T03:15:11;147179.72;;;12.20;100.00
6938;BME280;40040;42.706;23.372;2022-10-15T03:17:38;147150.09;;;12.08;100.00
6938;BME280;40040;42.706;23.372;2022-10-15T03:20:06;147127.84;;;11.99;100.00
6938;BME280;40040;42.706;23.372;2022-10-15T03:22:33;147124.13;;;11.97;100.00
6938;BME280;40040;42.706;23.372;2022-10-15T03:25:00;147127.84;;;11.99;100.00
6938;BME280;40040;42.706;23.372;2022-10-15T03:27:28;147132.78;;;12.01;100.00
6938;BME280;40040;42.706;23.372;2022-10-15T03:29:55;146996.88;;;11.46;100.00
6938;BME280;40040;42.706;23.372;2022-10-15T03:32:22;147126.59;;;11.98;100.00
6938;BME280;40040;42.706;23.372;2022-10-15T03:34:49;147119.19;;;11.95;100.00
6938;BME280;40040;42.706;23.372;2022-10-15T03:37:15;147125.34;;;11.98;100.00
6938;BME280;40040;42.706;23.372;2022-10-15T03:39:42;147114.25;;;11.93;100.00
6938;BME280;40040;42.706;23.372;2022-10-15T03:42:09;147089.56;;;11.83;100.00
6938;BME280;40040;42.706;23.372;2022-10-15T03:44:37;147121.66;;;11.96;100.00
6938;BME280;40040;42.706;23.372;2022-10-15T03:47:04;147113.00;;;11.93;100.00
6938;BME280;40040;42.706;23.372;2022-10-15T03:49:32;147105.59;;;11.90;100.00
6938;BME280;40040;42.706;23.372;2022-10-15T03:51:58;147115.50;;;11.94;100.00
6938;BME280;40040;42.706;23.372;2022-10-15T03:54:26;147043.84;;;11.65;100.00
6938;BME280;40040;42.706;23.372;2022-10-15T03:56:52;147136.47;;;12.02;100.00
6938;BME280;40040;42.706;23.372;2022-10-15T03:59:19;147126.59;;;11.98;100.00
6938;BME280;40040;42.706;23.372;2022-10-15T04:01:47;147137.72;;;12.03;100.00
6938;BME280;40040;42.706;23.372;2022-10-15T04:04:14;147131.53;;;12.00;100.00
6938;BME280;40040;42.706;23.372;2022-10-15T04:06:41;147153.78;;;12.09;100.00
6938;BME280;40040;42.706;23.372;2022-10-15T04:09:12;147155.03;;;12.10;100.00
6938;BME280;40040;42.706;23.372;2022-10-15T04:11:40;147157.47;;;12.11;100.00
6938;BME280;40040;42.706;23.372;2022-10-15T04:14:06;147167.38;;;12.15;100.00
6938;BME280;40040;42.706;23.372;2022-10-15T04:16:33;147159.94;;;12.12;100.00
6938;BME280;40040;42.706;23.372;2022-10-15T04:19:01;147184.66;;;12.22;100.00
6938;BME280;40040;42.706;23.372;2022-10-15T04:21:28;147209.38;;;12.32;100.00
6938;BME280;40040;42.706;23.372;2022-10-15T04:23:55;147204.41;;;12.30;100.00
6938;BME280;40040;42.706;23.372;2022-10-15T04:26:22;147206.88;;;12.31;100.00
6938;BME280;40040;42.706;23.372;2022-10-15T04:28:49;147199.47;;;12.28;100.00
6938;BME280;40040;42.706;23.372;2022-10-15T04:31:16;147194.53;;;12.26;100.00
6938;BME280;40040;42.706;23.372;2022-10-15T04:33:42;147189.56;;;12.24;100.00
6938;BME280;40040;42.706;23.372;2022-10-15T04:36:12;147199.47;;;12.28;100.00
6938;BME280;40040;42.706;23.372;2022-10-15T04:38:39;147211.81;;;12.33;100.00
6938;BME280;40040;42.706;23.372;2022-10-15T04:41:08;147101.91;;;11.88;100.00
6938;BME280;40040;42.706;23.372;2022-10-15T04:43:35;147221.72;;;12.37;100.00
6938;BME280;40040;42.706;23.372;2022-10-15T04:46:05;147236.50;;;12.43;100.00
6938;BME280;40040;42.706;23.372;2022-10-15T04:48:34;147179.72;;;12.20;100.00
6938;BME280;40040;42.706;23.372;2022-10-15T04:51:03;147236.50;;;12.43;100.00
6938;BME280;40040;42.706;23.372;2022-10-15T04:53:32;147234.06;;;12.42;100.00
6938;BME280;40040;42.706;23.372;2022-10-15T04:56:01;147250.13;;;12.48;100.00
6938;BME280;40040;42.706;23.372;2022-10-15T04:58:30;147250.13;;;12.48;100.00
6938;BME280;40040;42.706;23.372;2022-10-15T05:01:01;147243.97;;;12.46;100.00
6938;BME280;40040;42.706;23.372;2022-10-15T05:03:28;147262.47;;;12.54;100.00
6938;BME280;40040;42.706;23.372;2022-10-15T05:05:59;147263.72;;;12.54;100.00
6938;BME280;40040;42.706;23.372;2022-10-15T05:08:28;147266.22;;;12.55;100.00
6938;BME280;40040;42.706;23.372;2022-10-15T05:11:00;147277.31;;;12.60;100.00
6938;BME280;40040;42.706;23.372;2022-10-15T05:13:28;147281.00;;;12.61;100.00
6938;BME280;40040;42.706;23.372;2022-10-15T05:15:55;147305.72;;;12.71;100.00
6938;BME280;40040;42.706;23.372;2022-10-15T05:18:23;147318.06;;;12.76;100.00
6938;BME280;40040;42.706;23.372;2022-10-15T05:20:50;147309.41;;;12.73;100.00
6938;BME280;40040;42.706;23.372;2022-10-15T05:23:17;147298.31;;;12.68;100.00
6938;BME280;40040;42.706;23.372;2022-10-15T05:25:44;147236.50;;;12.43;100.00
6938;BME280;40040;42.706;23.372;2022-10-15T05:28:13;147281.00;;;12.61;100.00
6938;BME280;40040;42.706;23.372;2022-10-15T05:30:40;147293.38;;;12.66;100.00
6938;BME280;40040;42.706;23.372;2022-10-15T05:33:08;147263.72;;;12.54;100.00
6938;BME280;40040;42.706;23.372;2022-10-15T05:35:36;147237.75;;;12.43;100.00
6938;BME280;40040;42.706;23.372;2022-10-15T05:38:04;147182.16;;;12.21;100.00
6938;BME280;40040;42.706;23.372;2022-10-15T05:40:31;147241.47;;;12.45;100.00
6938;BME280;40040;42.706;23.372;2022-10-15T05:42:58;147241.47;;;12.45;100.00
6938;BME280;40040;42.706;23.372;2022-10-15T05:45:27;147240.25;;;12.44;100.00
6938;BME280;40040;42.706;23.372;2022-10-15T05:47:55;147251.38;;;12.49;100.00
6938;BME280;40040;42.706;23.372;2022-10-15T05:50:22;147258.75;;;12.52;100.00
6938;BME280;40040;42.706;23.372;2022-10-15T05:52:52;147251.38;;;12.49;100.00
6938;BME280;40040;42.706;23.372;2022-10-15T05:55:22;147243.97;;;12.46;100.00
6938;BME280;40040;42.706;23.372;2022-10-15T05:57:50;147235.31;;;12.42;100.00
6938;BME280;40040;42.706;23.372;2022-10-15T06:00:17;147231.63;;;12.41;100.00
6938;BME280;40040;42.706;23.372;2022-10-15T06:02:46;147234.06;;;12.42;100.00
6938;BME280;40040;42.706;23.372;2022-10-15T06:05:13;147237.75;;;12.43;100.00
6938;BME280;40040;42.706;23.372;2022-10-15T06:07:42;147256.31;;;12.51;100.00
6938;BME280;40040;42.706;23.372;2022-10-15T06:10:10;147260.00;;;12.53;100.00
6938;BME280;40040;42.706;23.372;2022-10-15T06:12:40;147273.63;;;12.58;100.00
6938;BME280;40040;42.706;23.372;2022-10-15T06:15:08;147295.88;;;12.67;100.00
6938;BME280;40040;42.706;23.372;2022-10-15T06:17:36;147304.50;;;12.71;100.00
6938;BME280;40040;42.706;23.372;2022-10-15T06:20:05;147293.38;;;12.66;100.00
6938;BME280;40040;42.706;23.372;2022-10-15T06:22:33;147260.00;;;12.53;100.00
6938;BME280;40040;42.706;23.372;2022-10-15T06:25:00;147267.41;;;12.56;100.00
6938;BME280;40040;42.706;23.372;2022-10-15T06:27:28;147266.22;;;12.55;100.00
6938;BME280;40040;42.706;23.372;2022-10-15T06:29:55;147298.31;;;12.68;100.00
6938;BME280;40040;42.706;23.372;2022-10-15T06:32:22;147293.38;;;12.66;100.00
6938;BME280;40040;42.706;23.372;2022-10-15T06:34:50;147352.69;;;12.90;100.00
6938;BME280;40040;42.706;23.372;2022-10-15T06:37:18;147377.44;;;13.00;100.00
6938;BME280;40040;42.706;23.372;2022-10-15T06:39:45;147397.25;;;13.08;100.00
6938;BME280;40040;42.706;23.372;2022-10-15T06:42:13;147421.94;;;13.18;100.00
6938;BME280;40040;42.706;23.372;2022-10-15T06:44:40;147379.88;;;13.01;100.00
6938;BME280;40040;42.706;23.372;2022-10-15T06:47:07;147345.28;;;12.87;100.00
6938;BME280;40040;42.706;23.372;2022-10-15T06:49:34;147251.38;;;12.49;100.00
6938;BME280;40040;42.706;23.372;2022-10-15T06:52:01;147409.59;;;13.13;100.00
6938;BME280;40040;42.706;23.372;2022-10-15T06:54:37;147256.31;;;12.51;100.00
6938;BME280;40040;42.706;23.372;2022-10-15T06:57:06;147303.25;;;12.70;100.00
6938;BME280;40040;42.706;23.372;2022-10-15T06:59:33;147402.19;;;13.10;100.00
6938;BME280;40040;42.706;23.372;2022-10-15T07:02:00;147330.47;;;12.81;100.00
6938;BME280;40040;42.706;23.372;2022-10-15T07:04:27;147473.88;;;13.39;100.00
6938;BME280;40040;42.706;23.372;2022-10-15T07:06:54;147512.22;;;13.55;100.00
6938;BME280;40040;42.706;23.372;2022-10-15T07:09:22;147365.06;;;12.95;100.00
6938;BME280;40040;42.706;23.372;2022-10-15T07:11:53;147553.06;;;13.72;100.00
6938;BME280;40040;42.706;23.372;2022-10-15T07:14:24;147575.31;;;13.81;100.00
6938;BME280;40040;42.706;23.372;2022-10-15T07:17:03;147598.78;;;13.90;100.00
6938;BME280;40040;42.706;23.372;2022-10-15T07:19:34;147555.50;;;13.73;100.00
6938;BME280;40040;42.706;23.372;2022-10-15T07:22:02;147679.19;;;14.23;100.00
6938;BME280;40040;42.706;23.372;2022-10-15T07:24:31;147718.84;;;14.39;100.00
6938;BME280;40040;42.706;23.372;2022-10-15T07:27:00;147748.53;;;14.51;100.00
6938;BME280;40040;42.706;23.372;2022-10-15T07:29:27;147655.72;;;14.13;100.00
6938;BME280;40040;42.706;23.372;2022-10-15T07:31:54;147807.94;;;14.75;100.00
6938;BME280;40040;42.706;23.372;2022-10-15T07:34:21;147739.88;;;14.47;100.00
6938;BME280;40040;42.706;23.372;2022-10-15T07:36:48;147888.41;;;15.08;100.00
6938;BME280;40040;42.706;23.372;2022-10-15T07:39:15;147926.81;;;15.23;100.00
6938;BME280;40040;42.706;23.372;2022-10-15T07:41:44;147973.91;;;15.42;100.00
6938;BME280;40040;42.706;23.372;2022-10-15T07:44:13;147998.66;;;15.52;100.00
6938;BME280;40040;42.706;23.372;2022-10-15T07:46:40;147996.19;;;15.51;99.70
6938;BME280;40040;42.706;23.372;2022-10-15T07:49:08;148013.53;;;15.58;99.35
6938;BME280;40040;42.706;23.372;2022-10-15T07:51:35;148038.31;;;15.68;99.08
6938;BME280;40040;42.706;23.372;2022-10-15T07:54:03;148023.41;;;15.62;97.20
6938;BME280;40040;42.706;23.372;2022-10-15T07:56:30;148053.13;;;15.74;97.56
6938;BME280;40040;42.706;23.372;2022-10-15T07:58:57;147976.34;;;15.43;97.78
6938;BME280;40040;42.706;23.372;2022-10-15T08:01:26;148040.75;;;15.69;95.63
6938;BME280;40040;42.706;23.372;2022-10-15T08:03:53;148096.50;;;15.92;94.40
6938;BME280;40040;42.706;23.372;2022-10-15T08:06:20;148080.41;;;15.86;94.08
6938;BME280;40040;42.706;23.372;2022-10-15T08:08:51;148082.84;;;15.87;93.41
6938;BME280;40040;42.706;23.372;2022-10-15T08:11:19;148096.50;;;15.92;94.50
6938;BME280;40040;42.706;23.372;2022-10-15T08:13:46;148043.25;;;15.70;92.24
6938;BME280;40040;42.706;23.372;2022-10-15T08:16:15;148033.34;;;15.66;92.74
6938;BME280;40040;42.706;23.372;2022-10-15T08:18:45;147994.94;;;15.51;91.62
6938;BME280;40040;42.706;23.372;2022-10-15T08:21:14;148126.22;;;16.04;91.06
6938;BME280;40040;42.706;23.372;2022-10-15T08:23:41;148186.94;;;16.29;90.19
6938;BME280;40040;42.706;23.372;2022-10-15T08:26:09;148206.78;;;16.37;90.13
6938;BME280;40040;42.706;23.372;2022-10-15T08:28:36;148169.59;;;16.22;88.92
6938;BME280;40040;42.706;23.372;2022-10-15T08:31:03;148308.44;;;16.78;88.24
6938;BME280;40040;42.706;23.372;2022-10-15T08:33:31;148302.22;;;16.75;85.62
6938;BME280;40040;42.706;23.372;2022-10-15T08:35:59;148338.19;;;16.90;87.03
6938;BME280;40040;42.706;23.372;2022-10-15T08:38:26;148385.31;;;17.09;84.71
6938;BME280;40040;42.706;23.372;2022-10-15T08:40:55;148439.84;;;17.31;83.88
6938;BME280;40040;42.706;23.372;2022-10-15T08:43:24;148420.03;;;17.23;84.54
6938;BME280;40040;42.706;23.372;2022-10-15T08:45:56;148427.44;;;17.26;82.92
6938;BME280;40040;42.706;23.372;2022-10-15T08:48:29;148424.97;;;17.25;80.63
6938;BME280;40040;42.706;23.372;2022-10-15T08:51:00;148537.91;;;17.71;80.36
6938;BME280;40040;42.706;23.372;2022-10-15T08:53:29;148565.16;;;17.82;80.32
6938;BME280;40040;42.706;23.372;2022-10-15T08:56:03;148510.59;;;17.60;79.59
6938;BME280;40040;42.706;23.372;2022-10-15T08:58:42;148509.34;;;17.59;80.20
6938;BME280;40040;42.706;23.372;2022-10-15T09:01:13;148487.06;;;17.50;80.79
6938;BME280;40040;42.706;23.372;2022-10-15T09:03:50;148454.75;;;17.37;80.25
6938;BME280;40040;42.706;23.372;2022-10-15T09:06:24;148379.13;;;17.07;79.81
6938;BME280;40040;42.706;23.372;2022-10-15T09:08:58;148498.19;;;17.55;80.32
6938;BME280;40040;42.706;23.372;2022-10-15T09:11:41;148526.72;;;17.66;80.00
6938;BME280;40040;42.706;23.372;2022-10-15T09:14:12;148485.81;;;17.50;80.45
6938;BME280;40040;42.706;23.372;2022-10-15T09:16:42;148509.34;;;17.59;79.32
6938;BME280;40040;42.706;23.372;2022-10-15T09:19:13;148361.78;;;17.00;80.75
6938;BME280;40040;42.706;23.372;2022-10-15T09:21:44;148410.09;;;17.19;81.21
6938;BME280;40040;42.706;23.372;2022-10-15T09:24:16;148415.06;;;17.21;80.43
6938;BME280;40040;42.706;23.372;2022-10-15T09:26:52;148437.38;;;17.30;81.00
6938;BME280;40040;42.706;23.372;2022-10-15T09:29:26;148429.94;;;17.27;80.69
6938;BME280;40040;42.706;23.372;2022-10-15T09:32:03;148434.91;;;17.29;79.91
6938;BME280;40040;42.706;23.372;2022-10-15T09:34:37;148439.84;;;17.31;79.93
6938;BME280;40040;42.706;23.372;2022-10-15T09:37:11;148618.53;;;18.04;76.59
6938;BME280;40040;42.706;23.372;2022-10-15T09:39:53;148601.16;;;17.96;75.38
6938;BME280;40040;42.706;23.372;2022-10-15T09:42:27;148760.03;;;18.61;75.08
6938;BME280;40040;42.706;23.372;2022-10-15T09:44:58;148850.63;;;18.97;73.28
6938;BME280;40040;42.706;23.372;2022-10-15T09:47:27;148940.06;;;19.34;72.03
6938;BME280;40040;42.706;23.372;2022-10-15T09:49:55;148931.38;;;19.30;70.10
6938;BME280;40040;42.706;23.372;2022-10-15T09:52:33;148945.03;;;19.36;68.83
6938;BME280;40040;42.706;23.372;2022-10-15T09:55:22;149018.31;;;19.65;68.98
6938;BME280;40040;42.706;23.372;2022-10-15T09:57:58;149146.38;;;20.17;68.45
6938;BME280;40040;42.706;23.372;2022-10-15T10:00:51;149250.72;;;20.59;68.16
6938;BME280;40040;42.706;23.372;2022-10-15T10:03:19;149253.22;;;20.60;64.61
6938;BME280;40040;42.706;23.372;2022-10-15T10:05:48;149326.56;;;20.90;63.99
6938;BME280;40040;42.706;23.372;2022-10-15T10:08:19;149397.44;;;21.18;63.88
6938;BME280;40040;42.706;23.372;2022-10-15T10:10:53;149508.16;;;21.63;62.91
6938;BME280;40040;42.706;23.372;2022-10-15T10:13:22;149531.75;;;21.73;63.21
6938;BME280;40040;42.706;23.372;2022-10-15T10:15:52;149597.75;;;21.99;61.05
6938;BME280;40040;42.706;23.372;2022-10-15T10:18:21;149764.50;;;22.67;61.06
6938;BME280;40040;42.706;23.372;2022-10-15T10:20:53;149864.09;;;23.07;60.58
6938;BME280;40040;42.706;23.372;2022-10-15T10:23:28;149926.41;;;23.32;57.63
6938;BME280;40040;42.706;23.372;2022-10-15T10:25:57;149871.59;;;23.10;56.66
6938;BME280;40040;42.706;23.372;2022-10-15T10:28:29;149930.16;;;23.33;57.08
6938;BME280;40040;42.706;23.372;2022-10-15T10:31:03;149884.06;;;23.15;55.87
6938;BME280;40040;42.706;23.372;2022-10-15T10:33:34;150014.81;;;23.68;53.83
6938;BME280;40040;42.706;23.372;2022-10-15T10:36:02;149893.97;;;23.19;55.91
6938;BME280;40040;42.706;23.372;2022-10-15T10:38:32;149734.66;;;22.55;57.33
6938;BME280;40040;42.706;23.372;2022-10-15T10:41:01;149617.63;;;22.07;58.81
6938;BME280;40040;42.706;23.372;2022-10-15T10:43:31;149536.75;;;21.75;60.17
6938;BME280;40040;42.706;23.372;2022-10-15T10:46:01;149429.78;;;21.32;60.05
6938;BME280;40040;42.706;23.372;2022-10-15T10:48:37;149458.38;;;21.43;61.27
6938;BME280;40040;42.706;23.372;2022-10-15T10:51:08;149434.78;;;21.34;61.34
6938;BME280;40040;42.706;23.372;2022-10-15T10:53:50;149399.97;;;21.19;61.02
6938;BME280;40040;42.706;23.372;2022-10-15T10:56:22;149391.25;;;21.16;61.35
6938;BME280;40040;42.706;23.372;2022-10-15T10:58:57;149403.69;;;21.21;60.58
6938;BME280;40040;42.706;23.372;2022-10-15T11:01:26;149271.81;;;20.68;60.76
6938;BME280;40040;42.706;23.372;2022-10-15T11:03:54;149329.03;;;20.91;61.42
6938;BME280;40040;42.706;23.372;2022-10-15T11:06:29;149334.00;;;20.93;61.97
6938;BME280;40040;42.706;23.372;2022-10-15T11:09:08;149380.03;;;21.11;60.99
6938;BME280;40040;42.706;23.372;2022-10-15T11:11:44;149495.72;;;21.58;59.14
6938;BME280;40040;42.706;23.372;2022-10-15T11:14:19;149457.16;;;21.43;59.58
6938;BME280;40040;42.706;23.372;2022-10-15T11:16:54;149432.25;;;21.33;61.02
6938;BME280;40040;42.706;23.372;2022-10-15T11:19:30;149363.88;;;21.05;60.87
6938;BME280;40040;42.706;23.372;2022-10-15T11:22:13;149370.13;;;21.07;59.12
6938;BME280;40040;42.706;23.372;2022-10-15T11:24:50;149416.13;;;21.26;59.29
6938;BME280;40040;42.706;23.372;2022-10-15T11:27:34;149403.69;;;21.21;60.24
6938;BME280;40040;42.706;23.372;2022-10-15T11:30:21;149416.13;;;21.26;59.68
6938;BME280;40040;42.706;23.372;2022-10-15T11:32:59;149391.25;;;21.16;60.00
6938;BME280;40040;42.706;23.372;2022-10-15T11:35:37;149222.13;;;20.48;59.77
6938;BME280;40040;42.706;23.372;2022-10-15T11:38:18;149242.00;;;20.56;62.23
6938;BME280;40040;42.706;23.372;2022-10-15T11:41:02;149346.44;;;20.98;60.53
6938;BME280;40040;42.706;23.372;2022-10-15T11:43:47;149346.44;;;20.98;59.24
6938;BME280;40040;42.706;23.372;2022-10-15T11:46:23;149373.84;;;21.09;58.84
6938;BME280;40040;42.706;23.372;2022-10-15T11:49:03;149366.41;;;21.06;59.09
6938;BME280;40040;42.706;23.372;2022-10-15T11:51:48;149373.84;;;21.09;58.78
6938;BME280;40040;42.706;23.372;2022-10-15T11:54:26;149340.25;;;20.95;60.30
6938;BME280;40040;42.706;23.372;2022-10-15T11:56:58;149238.28;;;20.54;59.59
6938;BME280;40040;42.706;23.372;2022-10-15T11:59:32;149244.53;;;20.57;60.57
6938;BME280;40040;42.706;23.372;2022-10-15T12:02:08;149147.56;;;20.17;61.42
6938;BME280;40040;42.706;23.372;2022-10-15T12:04:39;149122.69;;;20.07;62.50
6938;BME280;40040;42.706;23.372;2022-10-15T12:07:14;149035.72;;;19.72;63.04
6938;BME280;40040;42.706;23.372;2022-10-15T12:09:45;149056.81;;;19.81;64.31
6938;BME280;40040;42.706;23.372;2022-10-15T12:12:24;149005.91;;;19.60;64.32
6938;BME280;40040;42.706;23.372;2022-10-15T12:15:07;148989.78;;;19.54;65.01
6938;BME280;40040;42.706;23.372;2022-10-15T12:17:42;148988.53;;;19.53;64.27
6938;BME280;40040;42.706;23.372;2022-10-15T12:20:14;148958.72;;;19.41;65.34
6938;BME280;40040;42.706;23.372;2022-10-15T12:22:54;149009.63;;;19.62;65.15
6938;BME280;40040;42.706;23.372;2022-10-15T12:25:42;149025.75;;;19.68;64.51
6938;BME280;40040;42.706;23.372;2022-10-15T12:28:17;149018.31;;;19.65;64.80
6938;BME280;40040;42.706;23.372;2022-10-15T12:30:58;148959.97;;;19.42;64.88
6938;BME280;40040;42.706;23.372;2022-10-15T12:33:31;148967.41;;;19.45;64.76
6938;BME280;40040;42.706;23.372;2022-10-15T12:36:01;149007.16;;;19.61;65.24
6938;BME280;40040;42.706;23.372;2022-10-15T12:38:34;148971.13;;;19.46;65.78
6938;BME280;40040;42.706;23.372;2022-10-15T12:41:05;148984.81;;;19.52;66.88
6938;BME280;40040;42.706;23.372;2022-10-15T12:43:37;148995.97;;;19.56;66.85
6938;BME280;40040;42.706;23.372;2022-10-15T12:46:07;148962.44;;;19.43;65.70
6938;BME280;40040;42.706;23.372;2022-10-15T12:48:37;148925.16;;;19.28;65.50
6938;BME280;40040;42.706;23.372;2022-10-15T12:51:38;148853.16;;;18.98;66.54
6938;BME280;40040;42.706;23.372;2022-10-15T12:54:38;148879.19;;;19.09;68.33
6938;BME280;40040;42.706;23.372;2022-10-15T13:00:31;148880.44;;;19.09;67.53
6938;BME280;40040;42.706;23.372;2022-10-15T13:05:50;148851.91;;;18.98;67.83
6938;BME280;40040;42.706;23.372;2022-10-15T13:08:22;148840.69;;;18.93;67.72
6938;BME280;40040;42.706;23.372;2022-10-15T13:10:52;148707.84;;;18.40;68.55